sensor_id;sensor_type;location;lat;lon;timestamp;temperature;humidity
71142;DHT22;58808;59.366;17.970;2022-11-25T00:01:39;1.80;99.90
71142;DHT22;58808;59.366;17.970;2022-11-25T00:04:05;1.80;99.90
71142;DHT22;58808;59.366;17.970;2022-11-25T00:06:34;1.80;99.90
71142;DHT22;58808;59.366;17.970;2022-11-25T00:09:10;1.80;99.90
71142;DHT22;58808;59.366;17.970;2022-11-25T00:11:40;1.80;99.90
71142;DHT22;58808;59.366;17.970;2022-11-25T00:14:09;1.80;99.90
71142;DHT22;58808;59.366;17.970;2022-11-25T00:16:36;1.80;99.90
71142;DHT22;58808;59.366;17.970;2022-11-25T00:19:01;1.80;99.90
71142;DHT22;58808;59.366;17.970;2022-11-25T00:21:30;1.80;99.90
71142;DHT22;58808;59.366;17.970;2022-11-25T00:24:02;1.80;99.90
71142;DHT22;58808;59.366;17.970;2022-11-25T00:26:29;1.90;99.90
71142;DHT22;58808;59.366;17.970;2022-11-25T00:28:58;1.90;99.90
71142;DHT22;58808;59.366;17.970;2022-11-25T00:31:31;1.90;99.90
71142;DHT22;58808;59.366;17.970;2022-11-25T00:33:57;1.90;99.90
71142;DHT22;58808;59.366;17.970;2022-11-25T00:36:29;1.90;99.90
71142;DHT22;58808;59.366;17.970;2022-11-25T00:39:00;1.90;99.90
71142;DHT22;58808;59.366;17.970;2022-11-25T00:41:27;1.90;99.90
71142;DHT22;58808;59.366;17.970;2022-11-25T00:44:15;1.90;99.90
71142;DHT22;58808;59.366;17.970;2022-11-25T00:47:00;1.90;99.90
71142;DHT22;58808;59.366;17.970;2022-11-25T00:49:26;1.90;99.90
71142;DHT22;58808;59.366;17.970;2022-11-25T00:51:51;1.90;99.90
71142;DHT22;58808;59.366;17.970;2022-11-25T00:54:17;1.90;99.90
71142;DHT22;58808;59.366;17.970;2022-11-25T00:56:43;1.90;99.90
71142;DHT22;58808;59.366;17.970;2022-11-25T00:59:09;1.90;99.90
71142;DHT22;58808;59.366;17.970;2022-11-25T01:01:35;1.90;99.90
71142;DHT22;58808;59.366;17.970;2022-11-25T01:04:01;1.90;99.90
71142;DHT22;58808;59.366;17.970;2022-11-25T01:06:26;1.90;99.90
71142;DHT22;58808;59.366;17.970;2022-11-25T01:08:53;1.90;99.90
71142;DHT22;58808;59.366;17.970;2022-11-25T01:11:20;1.90;99.90
71142;DHT22;58808;59.366;17.970;2022-11-25T01:13:47;1.90;99.90
71142;DHT22;58808;59.366;17.970;2022-11-25T01:16:16;1.90;99.90
71142;DHT22;58808;59.366;17.970;2022-11-25T01:18:42;1.90;99.90
71142;DHT22;58808;59.366;17.970;2022-11-25T01:23:39;1.90;99.90
71142;DHT22;58808;59.366;17.970;2022-11-25T01:26:11;1.90;99.90
71142;DHT22;58808;59.366;17.970;2022-11-25T01:28:38;1.90;99.90
71142;DHT22;58808;59.366;17.970;2022-11-25T01:31:09;1.90;99.90
71142;DHT22;58808;59.366;17.970;2022-11-25T01:33:35;1.90;99.90
71142;DHT22;58808;59.366;17.970;2022-11-25T01:36:03;1.90;99.90
71142;DHT22;58808;59.366;17.970;2022-11-25T01:38:30;1.80;99.90
71142;DHT22;58808;59.366;17.970;2022-11-25T01:40:56;1.80;99.90
71142;DHT22;58808;59.366;17.970;2022-11-25T01:43:22;1.80;99.90
71142;DHT22;58808;59.366;17.970;2022-11-25T01:45:48;1.80;99.90
71142;DHT22;58808;59.366;17.970;2022-11-25T01:48:19;1.80;99.90
71142;DHT22;58808;59.366;17.970;2022-11-25T01:50:47;1.80;99.90
71142;DHT22;58808;59.366;17.970;2022-11-25T01:53:15;1.80;99.90
71142;DHT22;58808;59.366;17.970;2022-11-25T01:55:48;1.80;99.90
71142;DHT22;58808;59.366;17.970;2022-11-25T01:58:33;1.80;99.90
71142;DHT22;58808;59.366;17.970;2022-11-25T02:00:59;1.80;99.90
71142;DHT22;58808;59.366;17.970;2022-11-25T02:03:36;1.80;99.90
71142;DHT22;58808;59.366;17.970;2022-11-25T02:08:49;1.80;99.90
71142;DHT22;58808;59.366;17.970;2022-11-25T02:11:18;1.80;99.90
71142;DHT22;58808;59.366;17.970;2022-11-25T02:13:48;1.80;99.90
71142;DHT22;58808;59.366;17.970;2022-11-25T02:16:15;1.80;99.90
71142;DHT22;58808;59.366;17.970;2022-11-25T02:18:41;1.80;99.90
71142;DHT22;58808;59.366;17.970;2022-11-25T02:21:10;1.80;99.90
71142;DHT22;58808;59.366;17.970;2022-11-25T02:26:07;1.80;99.90
71142;DHT22;58808;59.366;17.970;2022-11-25T02:28:34;1.80;99.90
71142;DHT22;58808;59.366;17.970;2022-11-25T02:31:00;1.80;99.90
71142;DHT22;58808;59.366;17.970;2022-11-25T02:33:27;1.80;99.90
71142;DHT22;58808;59.366;17.970;2022-11-25T02:35:59;1.80;99.90
71142;DHT22;58808;59.366;17.970;2022-11-25T02:41:28;1.80;99.90
71142;DHT22;58808;59.366;17.970;2022-11-25T02:43:55;1.80;99.90
71142;DHT22;58808;59.366;17.970;2022-11-25T02:46:23;1.80;99.90
71142;DHT22;58808;59.366;17.970;2022-11-25T02:48:53;1.80;99.90
71142;DHT22;58808;59.366;17.970;2022-11-25T02:51:22;1.80;99.90
71142;DHT22;58808;59.366;17.970;2022-11-25T02:53:48;1.80;99.90
71142;DHT22;58808;59.366;17.970;2022-11-25T02:56:15;1.80;99.90
71142;DHT22;58808;59.366;17.970;2022-11-25T02:58:41;1.80;99.90
71142;DHT22;58808;59.366;17.970;2022-11-25T03:01:08;1.80;99.90
71142;DHT22;58808;59.366;17.970;2022-11-25T03:03:34;1.80;99.90
71142;DHT22;58808;59.366;17.970;2022-11-25T03:06:00;1.80;99.90
71142;DHT22;58808;59.366;17.970;2022-11-25T03:08:26;1.80;99.90
71142;DHT22;58808;59.366;17.970;2022-11-25T03:10:51;1.90;99.90
71142;DHT22;58808;59.366;17.970;2022-11-25T03:13:17;1.90;99.90
71142;DHT22;58808;59.366;17.970;2022-11-25T03:15:43;1.90;99.90
71142;DHT22;58808;59.366;17.970;2022-11-25T03:18:08;1.90;99.90
71142;DHT22;58808;59.366;17.970;2022-11-25T03:20:35;1.90;99.90
71142;DHT22;58808;59.366;17.970;2022-11-25T03:23:02;1.90;99.90
71142;DHT22;58808;59.366;17.970;2022-11-25T03:25:28;1.90;99.90
71142;DHT22;58808;59.366;17.970;2022-11-25T03:27:53;1.90;99.90
71142;DHT22;58808;59.366;17.970;2022-11-25T03:30:21;1.90;99.90
71142;DHT22;58808;59.366;17.970;2022-11-25T03:32:48;1.80;99.90
71142;DHT22;58808;59.366;17.970;2022-11-25T03:35:14;1.80;99.90
71142;DHT22;58808;59.366;17.970;2022-11-25T03:37:40;1.80;99.90
71142;DHT22;58808;59.366;17.970;2022-11-25T03:40:08;1.80;99.90
71142;DHT22;58808;59.366;17.970;2022-11-25T03:42:34;1.90;99.90
71142;DHT22;58808;59.366;17.970;2022-11-25T03:45:00;1.90;99.90
71142;DHT22;58808;59.366;17.970;2022-11-25T03:47:26;1.90;99.90
71142;DHT22;58808;59.366;17.970;2022-11-25T03:49:52;1.90;99.90
71142;DHT22;58808;59.366;17.970;2022-11-25T03:52:17;1.90;99.90
71142;DHT22;58808;59.366;17.970;2022-11-25T03:54:43;1.90;99.90
71142;DHT22;58808;59.366;17.970;2022-11-25T03:57:09;1.90;99.90
71142;DHT22;58808;59.366;17.970;2022-11-25T03:59:35;1.90;99.90
71142;DHT22;58808;59.366;17.970;2022-11-25T04:02:00;1.80;99.90
71142;DHT22;58808;59.366;17.970;2022-11-25T04:04:26;1.90;99.90
71142;DHT22;58808;59.366;17.970;2022-11-25T04:06:52;1.90;99.90
71142;DHT22;58808;59.366;17.970;2022-11-25T04:09:17;1.90;99.90
71142;DHT22;58808;59.366;17.970;2022-11-25T04:11:43;1.90;99.90
71142;DHT22;58808;59.366;17.970;2022-11-25T04:14:28;1.90;99.90
71142;DHT22;58808;59.366;17.970;2022-11-25T04:16:54;1.90;99.90
71142;DHT22;58808;59.366;17.970;2022-11-25T04:19:20;1.90;99.90
71142;DHT22;58808;59.366;17.970;2022-11-25T04:21:45;1.90;99.90
71142;DHT22;58808;59.366;17.970;2022-11-25T04:24:11;1.90;99.90
71142;DHT22;58808;59.366;17.970;2022-11-25T04:26:37;1.90;99.90
71142;DHT22;58808;59.366;17.970;2022-11-25T04:29:02;1.90;99.90
71142;DHT22;58808;59.366;17.970;2022-11-25T04:31:28;1.90;99.90
71142;DHT22;58808;59.366;17.970;2022-11-25T04:33:54;1.90;99.90
71142;DHT22;58808;59.366;17.970;2022-11-25T04:36:19;1.90;99.90
71142;DHT22;58808;59.366;17.970;2022-11-25T04:38:45;1.90;99.90
71142;DHT22;58808;59.366;17.970;2022-11-25T04:41:10;1.90;99.90
71142;DHT22;58808;59.366;17.970;2022-11-25T04:43:36;1.90;99.90
71142;DHT22;58808;59.366;17.970;2022-11-25T04:46:02;1.90;99.90
71142;DHT22;58808;59.366;17.970;2022-11-25T04:48:28;1.90;99.90
71142;DHT22;58808;59.366;17.970;2022-11-25T04:50:54;1.90;99.90
71142;DHT22;58808;59.366;17.970;2022-11-25T04:53:20;1.90;99.90
71142;DHT22;58808;59.366;17.970;2022-11-25T04:55:46;1.80;99.90
71142;DHT22;58808;59.366;17.970;2022-11-25T04:58:12;1.80;99.90
71142;DHT22;58808;59.366;17.970;2022-11-25T05:00:38;1.80;99.90
71142;DHT22;58808;59.366;17.970;2022-11-25T05:03:04;1.80;99.90
71142;DHT22;58808;59.366;17.970;2022-11-25T05:05:29;1.90;99.90
71142;DHT22;58808;59.366;17.970;2022-11-25T05:07:55;1.80;99.90
71142;DHT22;58808;59.366;17.970;2022-11-25T05:10:21;1.80;99.90
71142;DHT22;58808;59.366;17.970;2022-11-25T05:12:47;1.80;99.90
71142;DHT22;58808;59.366;17.970;2022-11-25T05:15:13;1.80;99.90
71142;DHT22;58808;59.366;17.970;2022-11-25T05:17:39;1.80;99.90
71142;DHT22;58808;59.366;17.970;2022-11-25T05:20:05;1.80;99.90
71142;DHT22;58808;59.366;17.970;2022-11-25T05:22:32;1.80;99.90
71142;DHT22;58808;59.366;17.970;2022-11-25T05:24:58;1.80;99.90
71142;DHT22;58808;59.366;17.970;2022-11-25T05:27:25;1.90;99.90
71142;DHT22;58808;59.366;17.970;2022-11-25T05:29:51;1.90;99.90
71142;DHT22;58808;59.366;17.970;2022-11-25T05:32:17;1.90;99.90
71142;DHT22;58808;59.366;17.970;2022-11-25T05:34:43;1.90;99.90
71142;DHT22;58808;59.366;17.970;2022-11-25T05:37:11;1.90;99.90
71142;DHT22;58808;59.366;17.970;2022-11-25T05:39:37;1.90;99.90
71142;DHT22;58808;59.366;17.970;2022-11-25T05:42:03;1.90;99.90
71142;DHT22;58808;59.366;17.970;2022-11-25T05:44:29;1.90;99.90
71142;DHT22;58808;59.366;17.970;2022-11-25T05:46:54;1.90;99.90
71142;DHT22;58808;59.366;17.970;2022-11-25T05:49:20;1.90;99.90
71142;DHT22;58808;59.366;17.970;2022-11-25T05:51:46;1.90;99.90
71142;DHT22;58808;59.366;17.970;2022-11-25T05:54:12;1.90;99.90
71142;DHT22;58808;59.366;17.970;2022-11-25T05:56:38;1.90;99.90
71142;DHT22;58808;59.366;17.970;2022-11-25T05:59:03;1.90;99.90
71142;DHT22;58808;59.366;17.970;2022-11-25T06:01:29;1.90;99.90
71142;DHT22;58808;59.366;17.970;2022-11-25T06:03:59;1.90;99.90
71142;DHT22;58808;59.366;17.970;2022-11-25T06:06:25;1.90;99.90
71142;DHT22;58808;59.366;17.970;2022-11-25T06:08:50;1.90;99.90
71142;DHT22;58808;59.366;17.970;2022-11-25T06:11:16;1.90;99.90
71142;DHT22;58808;59.366;17.970;2022-11-25T06:13:43;1.90;99.90
71142;DHT22;58808;59.366;17.970;2022-11-25T06:16:17;1.90;99.90
71142;DHT22;58808;59.366;17.970;2022-11-25T06:18:44;1.90;99.90
71142;DHT22;58808;59.366;17.970;2022-11-25T06:21:10;1.90;99.90
71142;DHT22;58808;59.366;17.970;2022-11-25T06:23:36;1.90;99.90
71142;DHT22;58808;59.366;17.970;2022-11-25T06:26:21;1.90;99.90
71142;DHT22;58808;59.366;17.970;2022-11-25T06:28:47;1.90;99.90
71142;DHT22;58808;59.366;17.970;2022-11-25T06:31:19;1.90;99.90
71142;DHT22;58808;59.366;17.970;2022-11-25T06:33:47;1.90;99.90
71142;DHT22;58808;59.366;17.970;2022-11-25T06:36:14;1.90;99.90
71142;DHT22;58808;59.366;17.970;2022-11-25T06:38:46;1.90;99.90
71142;DHT22;58808;59.366;17.970;2022-11-25T06:41:13;1.90;99.90
71142;DHT22;58808;59.366;17.970;2022-11-25T06:43:39;1.90;99.90
71142;DHT22;58808;59.366;17.970;2022-11-25T06:46:07;1.90;99.90
71142;DHT22;58808;59.366;17.970;2022-11-25T06:48:34;1.90;99.90
71142;DHT22;58808;59.366;17.970;2022-11-25T06:51:01;1.90;99.90
71142;DHT22;58808;59.366;17.970;2022-11-25T06:53:28;1.90;99.90
71142;DHT22;58808;59.366;17.970;2022-11-25T06:56:06;1.80;99.90
71142;DHT22;58808;59.366;17.970;2022-11-25T06:58:33;1.90;99.90
71142;DHT22;58808;59.366;17.970;2022-11-25T07:01:22;1.90;99.90
71142;DHT22;58808;59.366;17.970;2022-11-25T07:03:53;1.80;99.90
71142;DHT22;58808;59.366;17.970;2022-11-25T07:06:19;1.80;99.90
71142;DHT22;58808;59.366;17.970;2022-11-25T07:08:46;1.80;99.90
71142;DHT22;58808;59.366;17.970;2022-11-25T07:11:20;1.80;99.90
71142;DHT22;58808;59.366;17.970;2022-11-25T07:13:47;1.80;99.90
71142;DHT22;58808;59.366;17.970;2022-11-25T07:16:13;1.80;99.90
71142;DHT22;58808;59.366;17.970;2022-11-25T07:18:40;1.80;99.90
71142;DHT22;58808;59.366;17.970;2022-11-25T07:23:33;1.90;99.90
71142;DHT22;58808;59.366;17.970;2022-11-25T07:26:07;1.90;99.90
71142;DHT22;58808;59.366;17.970;2022-11-25T07:28:34;1.90;99.90
71142;DHT22;58808;59.366;17.970;2022-11-25T07:33:30;1.90;99.90
71142;DHT22;58808;59.366;17.970;2022-11-25T07:36:05;1.90;99.90
71142;DHT22;58808;59.366;17.970;2022-11-25T07:38:32;2.00;99.90
71142;DHT22;58808;59.366;17.970;2022-11-25T07:41:10;1.90;99.90
71142;DHT22;58808;59.366;17.970;2022-11-25T07:43:36;1.90;99.90
71142;DHT22;58808;59.366;17.970;2022-11-25T07:48:37;1.90;99.90
71142;DHT22;58808;59.366;17.970;2022-11-25T07:51:03;2.00;99.90
71142;DHT22;58808;59.366;17.970;2022-11-25T07:53:29;2.00;99.90
71142;DHT22;58808;59.366;17.970;2022-11-25T07:55:54;2.00;99.90
71142;DHT22;58808;59.366;17.970;2022-11-25T07:58:20;2.00;99.90
71142;DHT22;58808;59.366;17.970;2022-11-25T08:00:46;2.00;99.90
71142;DHT22;58808;59.366;17.970;2022-11-25T08:03:11;2.00;99.90
71142;DHT22;58808;59.366;17.970;2022-11-25T08:05:37;2.00;99.90
71142;DHT22;58808;59.366;17.970;2022-11-25T08:08:03;2.00;99.90
71142;DHT22;58808;59.366;17.970;2022-11-25T08:10:28;2.00;99.90
71142;DHT22;58808;59.366;17.970;2022-11-25T08:12:54;2.00;99.90
71142;DHT22;58808;59.366;17.970;2022-11-25T08:15:20;2.00;99.90
71142;DHT22;58808;59.366;17.970;2022-11-25T08:17:45;2.00;99.90
71142;DHT22;58808;59.366;17.970;2022-11-25T08:20:11;2.00;99.90
71142;DHT22;58808;59.366;17.970;2022-11-25T08:22:37;2.00;99.90
71142;DHT22;58808;59.366;17.970;2022-11-25T08:25:03;2.10;99.90
71142;DHT22;58808;59.366;17.970;2022-11-25T08:27:28;2.10;99.90
71142;DHT22;58808;59.366;17.970;2022-11-25T08:29:54;2.10;99.90
71142;DHT22;58808;59.366;17.970;2022-11-25T08:32:19;2.10;99.90
71142;DHT22;58808;59.366;17.970;2022-11-25T08:34:45;2.20;99.90
71142;DHT22;58808;59.366;17.970;2022-11-25T08:37:11;2.20;99.90
71142;DHT22;58808;59.366;17.970;2022-11-25T08:39:36;2.20;99.90
71142;DHT22;58808;59.366;17.970;2022-11-25T08:42:03;2.20;99.90
71142;DHT22;58808;59.366;17.970;2022-11-25T08:44:29;2.20;99.90
71142;DHT22;58808;59.366;17.970;2022-11-25T08:46:55;2.20;99.90
71142;DHT22;58808;59.366;17.970;2022-11-25T08:49:21;2.20;99.90
71142;DHT22;58808;59.366;17.970;2022-11-25T08:51:47;2.20;99.90
71142;DHT22;58808;59.366;17.970;2022-11-25T08:54:13;2.20;99.90
71142;DHT22;58808;59.366;17.970;2022-11-25T08:56:39;2.30;99.90
71142;DHT22;58808;59.366;17.970;2022-11-25T08:59:05;2.30;99.90
71142;DHT22;58808;59.366;17.970;2022-11-25T09:01:30;2.30;99.90
71142;DHT22;58808;59.366;17.970;2022-11-25T09:03:57;2.30;99.90
71142;DHT22;58808;59.366;17.970;2022-11-25T09:06:25;2.30;99.90
71142;DHT22;58808;59.366;17.970;2022-11-25T09:08:54;2.30;99.90
71142;DHT22;58808;59.366;17.970;2022-11-25T09:11:20;2.30;99.90
71142;DHT22;58808;59.366;17.970;2022-11-25T09:13:46;2.30;99.90
71142;DHT22;58808;59.366;17.970;2022-11-25T09:16:11;2.30;99.90
71142;DHT22;58808;59.366;17.970;2022-11-25T09:18:37;2.30;99.90
71142;DHT22;58808;59.366;17.970;2022-11-25T09:21:10;2.30;99.90
71142;DHT22;58808;59.366;17.970;2022-11-25T09:23:37;2.30;99.90
71142;DHT22;58808;59.366;17.970;2022-11-25T09:26:04;2.30;99.90
71142;DHT22;58808;59.366;17.970;2022-11-25T09:28:31;2.30;99.90
71142;DHT22;58808;59.366;17.970;2022-11-25T09:30:56;2.40;99.90
71142;DHT22;58808;59.366;17.970;2022-11-25T09:33:22;2.30;99.90
71142;DHT22;58808;59.366;17.970;2022-11-25T09:35:48;2.40;99.90
71142;DHT22;58808;59.366;17.970;2022-11-25T09:38:15;2.40;99.90
71142;DHT22;58808;59.366;17.970;2022-11-25T09:43:34;2.40;99.90
71142;DHT22;58808;59.366;17.970;2022-11-25T09:54:31;2.40;99.90
71142;DHT22;58808;59.366;17.970;2022-11-25T09:57:20;2.50;99.90
71142;DHT22;58808;59.366;17.970;2022-11-25T10:00:04;2.50;99.90
71142;DHT22;58808;59.366;17.970;2022-11-25T10:02:34;2.50;99.90
71142;DHT22;58808;59.366;17.970;2022-11-25T10:05:18;2.50;99.90
71142;DHT22;58808;59.366;17.970;2022-11-25T10:08:08;2.50;99.90
71142;DHT22;58808;59.366;17.970;2022-11-25T10:11:06;2.50;99.90
71142;DHT22;58808;59.366;17.970;2022-11-25T10:13:53;2.60;99.90
71142;DHT22;58808;59.366;17.970;2022-11-25T10:19:05;2.70;99.90
71142;DHT22;58808;59.366;17.970;2022-11-25T10:21:35;2.70;99.90
71142;DHT22;58808;59.366;17.970;2022-11-25T10:24:03;2.70;99.90
71142;DHT22;58808;59.366;17.970;2022-11-25T10:26:34;2.80;99.90
71142;DHT22;58808;59.366;17.970;2022-11-25T10:31:41;2.90;99.90
71142;DHT22;58808;59.366;17.970;2022-11-25T10:36:53;2.90;99.90
71142;DHT22;58808;59.366;17.970;2022-11-25T10:39:25;3.00;99.90
71142;DHT22;58808;59.366;17.970;2022-11-25T10:42:14;3.00;99.90
71142;DHT22;58808;59.366;17.970;2022-11-25T10:44:42;3.00;99.90
71142;DHT22;58808;59.366;17.970;2022-11-25T10:53:16;3.00;99.90
71142;DHT22;58808;59.366;17.970;2022-11-25T10:55:59;2.90;99.90
71142;DHT22;58808;59.366;17.970;2022-11-25T11:01:22;2.90;99.90
71142;DHT22;58808;59.366;17.970;2022-11-25T11:04:10;3.00;99.90
71142;DHT22;58808;59.366;17.970;2022-11-25T11:06:38;3.00;99.90
71142;DHT22;58808;59.366;17.970;2022-11-25T11:09:04;3.00;99.90
71142;DHT22;58808;59.366;17.970;2022-11-25T11:11:30;3.00;99.90
71142;DHT22;58808;59.366;17.970;2022-11-25T11:14:12;3.00;99.90
71142;DHT22;58808;59.366;17.970;2022-11-25T11:16:41;3.00;99.90
71142;DHT22;58808;59.366;17.970;2022-11-25T11:19:20;3.00;99.90
71142;DHT22;58808;59.366;17.970;2022-11-25T11:21:46;3.00;99.90
71142;DHT22;58808;59.366;17.970;2022-11-25T11:24:32;3.00;99.90
71142;DHT22;58808;59.366;17.970;2022-11-25T11:27:20;3.00;99.90
71142;DHT22;58808;59.366;17.970;2022-11-25T11:29:47;3.00;99.90
71142;DHT22;58808;59.366;17.970;2022-11-25T11:32:22;3.00;99.90
71142;DHT22;58808;59.366;17.970;2022-11-25T11:35:02;3.00;99.90
71142;DHT22;58808;59.366;17.970;2022-11-25T11:56:36;3.00;99.90
71142;DHT22;58808;59.366;17.970;2022-11-25T12:10:33;3.00;99.90
71142;DHT22;58808;59.366;17.970;2022-11-25T12:16:04;3.00;99.90
71142;DHT22;58808;59.366;17.970;2022-11-25T12:24:20;3.10;99.90
71142;DHT22;58808;59.366;17.970;2022-11-25T12:27:35;3.10;99.90
71142;DHT22;58808;59.366;17.970;2022-11-25T12:29:41;3.00;99.90
71142;DHT22;58808;59.366;17.970;2022-11-25T12:34:57;3.00;99.90
71142;DHT22;58808;59.366;17.970;2022-11-25T12:37:31;3.00;99.90
71142;DHT22;58808;59.366;17.970;2022-11-25T12:40:23;3.00;99.90
71142;DHT22;58808;59.366;17.970;2022-11-25T12:42:50;3.00;99.90
71142;DHT22;58808;59.366;17.970;2022-11-25T12:45:25;3.00;99.90
71142;DHT22;58808;59.366;17.970;2022-11-25T12:47:51;3.00;99.90
71142;DHT22;58808;59.366;17.970;2022-11-25T12:50:24;3.00;99.90
71142;DHT22;58808;59.366;17.970;2022-11-25T12:53:23;3.00;99.90
71142;DHT22;58808;59.366;17.970;2022-11-25T12:55:50;3.00;99.90
71142;DHT22;58808;59.366;17.970;2022-11-25T13:01:40;3.10;99.90
71142;DHT22;58808;59.366;17.970;2022-11-25T13:06:58;3.00;99.90
71142;DHT22;58808;59.366;17.970;2022-11-25T13:17:26;3.00;99.90
71142;DHT22;58808;59.366;17.970;2022-11-25T13:23:01;3.10;99.90
71142;DHT22;58808;59.366;17.970;2022-11-25T13:25:27;3.10;99.90
71142;DHT22;58808;59.366;17.970;2022-11-25T13:30:36;3.00;99.90
71142;DHT22;58808;59.366;17.970;2022-11-25T13:35:34;3.00;99.90
71142;DHT22;58808;59.366;17.970;2022-11-25T13:38:01;3.00;99.90
71142;DHT22;58808;59.366;17.970;2022-11-25T13:40:36;3.00;99.90
71142;DHT22;58808;59.366;17.970;2022-11-25T13:43:03;3.00;99.90
71142;DHT22;58808;59.366;17.970;2022-11-25T13:45:41;3.00;99.90
71142;DHT22;58808;59.366;17.970;2022-11-25T13:48:23;3.00;99.90
71142;DHT22;58808;59.366;17.970;2022-11-25T13:50:51;3.00;99.90
71142;DHT22;58808;59.366;17.970;2022-11-25T13:53:37;3.00;99.90
71142;DHT22;58808;59.366;17.970;2022-11-25T14:01:38;3.00;99.90
71142;DHT22;58808;59.366;17.970;2022-11-25T14:04:06;3.00;99.90
71142;DHT22;58808;59.366;17.970;2022-11-25T14:21:15;3.00;99.90
71142;DHT22;58808;59.366;17.970;2022-11-25T14:26:31;3.10;99.90
71142;DHT22;58808;59.366;17.970;2022-11-25T14:29:26;3.00;99.90
71142;DHT22;58808;59.366;17.970;2022-11-25T14:35:07;3.00;99.90
71142;DHT22;58808;59.366;17.970;2022-11-25T14:38:05;3.00;99.90
71142;DHT22;58808;59.366;17.970;2022-11-25T14:40:43;3.00;99.90
71142;DHT22;58808;59.366;17.970;2022-11-25T14:43:19;3.00;99.90
71142;DHT22;58808;59.366;17.970;2022-11-25T14:45:46;3.00;99.90
71142;DHT22;58808;59.366;17.970;2022-11-25T14:48:20;2.90;99.90
71142;DHT22;58808;59.366;17.970;2022-11-25T14:50:55;2.90;99.90
71142;DHT22;58808;59.366;17.970;2022-11-25T14:53:23;3.00;99.90
71142;DHT22;58808;59.366;17.970;2022-11-25T14:55:50;2.90;99.90
71142;DHT22;58808;59.366;17.970;2022-11-25T14:58:15;2.90;99.90
71142;DHT22;58808;59.366;17.970;2022-11-25T15:03:21;2.80;99.90
71142;DHT22;58808;59.366;17.970;2022-11-25T15:05:54;2.90;99.90
71142;DHT22;58808;59.366;17.970;2022-11-25T15:08:21;2.90;99.90
71142;DHT22;58808;59.366;17.970;2022-11-25T15:11:01;2.90;99.90
71142;DHT22;58808;59.366;17.970;2022-11-25T15:13:44;2.90;99.90
71142;DHT22;58808;59.366;17.970;2022-11-25T15:16:43;2.90;99.90
71142;DHT22;58808;59.366;17.970;2022-11-25T15:19:20;2.90;99.90
71142;DHT22;58808;59.366;17.970;2022-11-25T15:22:02;2.90;99.90
71142;DHT22;58808;59.366;17.970;2022-11-25T15:24:39;2.80;99.90
71142;DHT22;58808;59.366;17.970;2022-11-25T15:27:17;2.80;99.90
71142;DHT22;58808;59.366;17.970;2022-11-25T15:29:45;2.80;99.90
71142;DHT22;58808;59.366;17.970;2022-11-25T15:32:19;2.80;99.90
71142;DHT22;58808;59.366;17.970;2022-11-25T15:34:46;2.80;99.90
71142;DHT22;58808;59.366;17.970;2022-11-25T15:37:13;2.80;99.90
71142;DHT22;58808;59.366;17.970;2022-11-25T15:39:39;2.80;99.90
71142;DHT22;58808;59.366;17.970;2022-11-25T15:42:31;2.80;99.90
71142;DHT22;58808;59.366;17.970;2022-11-25T15:45:02;2.80;99.90
71142;DHT22;58808;59.366;17.970;2022-11-25T15:47:32;2.80;99.90
71142;DHT22;58808;59.366;17.970;2022-11-25T15:49:59;2.80;99.90
71142;DHT22;58808;59.366;17.970;2022-11-25T15:52:27;2.80;99.90
71142;DHT22;58808;59.366;17.970;2022-11-25T15:54:58;2.80;99.90
71142;DHT22;58808;59.366;17.970;2022-11-25T15:57:26;2.80;99.90
71142;DHT22;58808;59.366;17.970;2022-11-25T16:05:30;2.70;99.90
71142;DHT22;58808;59.366;17.970;2022-11-25T16:07:58;2.70;99.90
71142;DHT22;58808;59.366;17.970;2022-11-25T16:10:33;2.70;99.90
71142;DHT22;58808;59.366;17.970;2022-11-25T16:18:18;2.70;99.90
71142;DHT22;58808;59.366;17.970;2022-11-25T16:20:50;2.60;99.90
71142;DHT22;58808;59.366;17.970;2022-11-25T16:23:16;2.70;99.90
71142;DHT22;58808;59.366;17.970;2022-11-25T16:25:50;2.70;99.90
71142;DHT22;58808;59.366;17.970;2022-11-25T16:28:22;2.70;99.90
71142;DHT22;58808;59.366;17.970;2022-11-25T16:30:48;2.70;99.90
71142;DHT22;58808;59.366;17.970;2022-11-25T16:33:14;2.60;99.90
71142;DHT22;58808;59.366;17.970;2022-11-25T16:35:39;2.60;99.90
71142;DHT22;58808;59.366;17.970;2022-11-25T16:38:05;2.60;99.90
71142;DHT22;58808;59.366;17.970;2022-11-25T16:40:35;2.60;99.90
71142;DHT22;58808;59.366;17.970;2022-11-25T16:43:01;2.60;99.90
71142;DHT22;58808;59.366;17.970;2022-11-25T16:45:27;2.60;99.90
71142;DHT22;58808;59.366;17.970;2022-11-25T16:47:53;2.60;99.90
71142;DHT22;58808;59.366;17.970;2022-11-25T16:50:20;2.60;99.90
71142;DHT22;58808;59.366;17.970;2022-11-25T16:52:46;2.60;99.90
71142;DHT22;58808;59.366;17.970;2022-11-25T16:55:12;2.60;99.90
71142;DHT22;58808;59.366;17.970;2022-11-25T16:57:39;2.60;99.90
71142;DHT22;58808;59.366;17.970;2022-11-25T17:00:10;2.60;99.90
71142;DHT22;58808;59.366;17.970;2022-11-25T17:02:36;2.60;99.90
71142;DHT22;58808;59.366;17.970;2022-11-25T17:07:43;2.60;99.90
71142;DHT22;58808;59.366;17.970;2022-11-25T17:10:09;2.60;99.90
71142;DHT22;58808;59.366;17.970;2022-11-25T17:12:36;2.60;99.90
71142;DHT22;58808;59.366;17.970;2022-11-25T17:15:05;2.60;99.90
71142;DHT22;58808;59.366;17.970;2022-11-25T17:17:33;2.60;99.90
71142;DHT22;58808;59.366;17.970;2022-11-25T17:19:58;2.60;99.90
71142;DHT22;58808;59.366;17.970;2022-11-25T17:22:26;2.60;99.90
71142;DHT22;58808;59.366;17.970;2022-11-25T17:24:52;2.60;99.90
71142;DHT22;58808;59.366;17.970;2022-11-25T17:27:29;2.60;99.90
71142;DHT22;58808;59.366;17.970;2022-11-25T17:29:58;2.60;99.90
71142;DHT22;58808;59.366;17.970;2022-11-25T17:32:25;2.70;99.90
71142;DHT22;58808;59.366;17.970;2022-11-25T17:34:51;2.70;99.90
71142;DHT22;58808;59.366;17.970;2022-11-25T17:37:21;2.70;99.90
71142;DHT22;58808;59.366;17.970;2022-11-25T17:39:48;2.70;99.90
71142;DHT22;58808;59.366;17.970;2022-11-25T17:42:16;2.70;99.90
71142;DHT22;58808;59.366;17.970;2022-11-25T17:44:44;2.60;99.90
71142;DHT22;58808;59.366;17.970;2022-11-25T17:47:12;2.60;99.90
71142;DHT22;58808;59.366;17.970;2022-11-25T17:49:38;2.70;99.90
71142;DHT22;58808;59.366;17.970;2022-11-25T17:52:04;2.60;99.90
71142;DHT22;58808;59.366;17.970;2022-11-25T17:54:30;2.60;99.90
71142;DHT22;58808;59.366;17.970;2022-11-25T17:56:56;2.70;99.90
71142;DHT22;58808;59.366;17.970;2022-11-25T17:59:25;2.70;99.90
71142;DHT22;58808;59.366;17.970;2022-11-25T18:01:52;2.70;99.90
71142;DHT22;58808;59.366;17.970;2022-11-25T18:04:31;2.70;99.90
71142;DHT22;58808;59.366;17.970;2022-11-25T18:06:59;2.60;99.90
71142;DHT22;58808;59.366;17.970;2022-11-25T18:09:24;2.70;99.90
71142;DHT22;58808;59.366;17.970;2022-11-25T18:11:53;2.60;99.90
71142;DHT22;58808;59.366;17.970;2022-11-25T18:16:48;2.60;99.90
71142;DHT22;58808;59.366;17.970;2022-11-25T18:19:14;2.60;99.90